Time;durP1;ratioP1;P1;durP2;ratioP2;P2;SDS_P1;SDS_P2;PMS_P1;PMS_P2;Temp;Humidity;BMP_temperature;BMP_pressure;BME280_temperature;BME280_humidity;BME280_pressure;Samples;Min_cycle;Max_cycle;Signal;HPM_P1;HPM_P2
2022/05/09 00:00:20;;;;;;;4.20;3.33;;;;;;;15.44;68.18;102053.84;5072194;28;20043;-84
2022/05/09 00:02:47;;;;;;;4.10;3.25;;;;;;;15.18;68.21;102012.03;5073781;28;20107;-84
2022/05/09 00:05:16;;;;;;;7.57;3.35;;;;;;;15.55;68.30;102075.50;5072420;28;20036;-84
2022/05/09 00:07:42;;;;;;;6.07;3.67;;;;;;;15.56;67.90;102074.69;5073246;28;20060;-84
2022/05/09 00:10:08;;;;;;;;;;;;;;;15.61;68.19;102090.72;5073017;28;20052;-84
2022/05/09 00:12:34;;;;;;;4.63;3.15;;;;;;;15.57;68.14;102084.38;5072563;28;20373;-84
2022/05/09 00:15:00;;;;;;;4.55;3.33;;;;;;;15.63;68.23;102087.34;5071784;28;20071;-84
2022/05/09 00:17:25;;;;;;;4.82;3.13;;;;;;;15.53;67.98;102069.22;5088895;28;20037;-84
2022/05/09 00:19:51;;;;;;;5.57;3.55;;;;;;;15.52;68.07;102069.16;5073527;28;20429;-84
2022/05/09 00:22:16;;;;;;;4.88;3.40;;;;;;;15.45;68.35;102058.31;5054894;28;20494;-84
2022/05/09 00:24:42;;;;;;;6.38;3.47;;;;;;;15.28;68.15;102030.13;5073251;28;20035;-85
2022/05/09 00:27:08;;;;;;;5.57;3.58;;;;;;;15.46;68.00;102061.84;5071464;28;20113;-84
2022/05/09 00:29:34;;;;;;;5.15;3.45;;;;;;;15.39;68.12;102052.69;5073614;28;20427;-85
2022/05/09 00:32:00;;;;;;;4.82;3.38;;;;;;;15.37;68.12;102053.44;5072824;28;20041;-85
2022/05/09 00:34:25;;;;;;;5.45;3.65;;;;;;;15.25;68.23;102041.41;5073154;28;20033;-84
2022/05/09 00:36:55;;;;;;;3.92;2.70;;;;;;;15.58;68.28;102080.03;5068289;28;20500;-85
2022/05/09 00:39:22;;;;;;;5.40;3.47;;;;;;;15.57;68.29;102083.47;5088186;28;20462;-84
2022/05/09 00:41:47;;;;;;;4.60;3.15;;;;;;;15.18;68.02;102005.03;5071702;28;20086;-85
2022/05/09 00:44:14;;;;;;;5.40;3.58;;;;;;;15.16;68.10;102009.31;5072892;28;20025;-84
2022/05/09 00:46:43;;;;;;;5.32;3.40;;;;;;;15.57;68.22;102079.09;5069097;28;20036;-84
2022/05/09 00:49:19;;;;;;;5.78;3.50;;;;;;;15.54;68.16;102080.69;5053254;28;20386;-85
2022/05/09 00:52:14;;;;;;;4.57;3.47;;;;;;;15.47;68.37;102061.94;5071529;28;20103;-85
2022/05/09 00:54:44;;;;;;;6.05;3.53;;;;;;;15.42;68.11;102062.47;5071747;28;20040;-84
2022/05/09 00:57:15;;;;;;;4.38;3.38;;;;;;;15.53;68.07;102082.41;5071422;28;20103;-84
2022/05/09 00:59:41;;;;;;;6.43;3.38;;;;;;;15.42;68.16;102063.38;5087850;28;20119;-84
2022/05/09 01:02:07;;;;;;;4.82;3.40;;;;;;;15.54;68.40;102068.44;5071067;28;20029;-85
2022/05/09 01:04:41;;;;;;;5.72;3.63;;;;;;;15.57;67.85;102072.94;5070935;28;20517;-84
2022/05/09 01:07:06;;;;;;;4.57;2.97;;;;;;;15.41;68.00;102058.94;5072819;28;20397;-84
2022/05/09 01:09:32;;;;;;;5.40;3.30;;;;;;;15.32;67.92;102036.47;5071418;28;20039;-84
2022/05/09 01:11:57;;;;;;;5.38;3.63;;;;;;;15.39;68.38;102051.78;5072095;28;20047;-84
2022/05/09 01:14:27;;;;;;;4.05;3.17;;;;;;;15.49;68.36;102061.97;5072439;28;20040;-84
2022/05/09 01:16:53;;;;;;;3.78;3.10;;;;;;;15.18;68.32;102006.78;5072101;28;20033;-84
2022/05/09 01:19:55;;;;;;;4.80;3.35;;;;;;;15.36;68.23;102039.34;5071236;28;20025;-84
2022/05/09 01:22:30;;;;;;;5.30;3.40;;;;;;;15.55;68.11;102061.44;5071082;28;20041;-85
2022/05/09 01:25:03;;;;;;;5.05;3.20;;;;;;;15.53;68.15;102066.59;5070847;28;20032;-84
2022/05/09 01:27:36;;;;;;;5.35;3.28;;;;;;;15.45;68.26;102060.00;5071087;28;20032;-84
2022/05/09 01:30:08;;;;;;;4.55;3.30;;;;;;;15.51;68.09;102065.59;5050854;28;20490;-84
2022/05/09 01:32:46;;;;;;;5.88;3.72;;;;;;;15.40;68.20;102048.34;5062399;28;20029;-85
2022/05/09 01:35:25;;;;;;;4.18;3.15;;;;;;;15.49;68.18;102059.34;5072016;28;20103;-84
2022/05/09 01:37:55;;;;;;;5.28;3.55;;;;;;;15.33;67.97;102022.50;5053299;28;20515;-84
2022/05/09 01:40:21;;;;;;;6.20;3.28;;;;;;;15.29;67.86;102017.91;5059482;28;20033;-85
2022/05/09 01:42:46;;;;;;;4.95;3.20;;;;;;;15.39;67.95;102036.91;5062564;28;20093;-85
2022/05/09 01:45:13;;;;;;;5.05;3.15;;;;;;;15.45;68.15;102060.00;5071537;28;20039;-85
2022/05/09 01:50:23;;;;;;;5.43;3.38;;;;;;;15.45;67.98;102060.94;5070846;28;20053;-85
2022/05/09 01:52:49;;;;;;;4.28;3.03;;;;;;;15.39;67.89;102049.16;5070116;28;20036;-85
2022/05/09 01:55:15;;;;;;;;;;;;;;;15.53;67.72;102056.06;5071228;28;20123;-85
2022/05/09 01:57:40;;;;;;;5.28;3.20;;;;;;;15.44;67.86;102060.84;5071637;28;20382;-84
2022/05/09 02:00:08;;;;;;;5.65;3.30;;;;;;;15.39;67.91;102057.06;5070253;28;20025;-84
2022/05/09 02:02:34;;;;;;;5.63;3.50;;;;;;;15.23;68.08;102026.34;5070007;28;20036;-84
2022/05/09 02:05:00;;;;;;;5.80;3.72;;;;;;;15.41;67.92;102063.31;5053602;28;20465;-83
2022/05/09 02:07:26;;;;;;;4.68;3.17;;;;;;;15.11;68.03;102009.88;5069791;28;20040;-84
2022/05/09 02:09:53;;;;;;;5.03;3.30;;;;;;;15.37;67.92;102062.22;5071623;28;20025;-83
2022/05/09 02:12:19;;;;;;;4.60;3.35;;;;;;;15.02;68.02;101997.13;5070854;28;20127;-84
2022/05/09 02:14:46;;;;;;;6.18;3.22;;;;;;;15.16;67.85;102006.69;5071338;28;20035;-84
2022/05/09 02:17:12;;;;;;;4.45;3.08;;;;;;;15.39;67.97;102051.78;5069944;28;20066;-84
2022/05/09 02:19:39;;;;;;;4.68;3.33;;;;;;;15.25;67.71;102029.97;5069349;28;20409;-84
2022/05/09 02:22:05;;;;;;;4.85;3.60;;;;;;;15.22;68.16;102027.19;5069770;28;20029;-82
2022/05/09 02:24:30;;;;;;;5.22;3.40;;;;;;;15.14;68.06;102015.31;5071657;28;20103;-84
2022/05/09 02:26:57;;;;;;;5.13;3.40;;;;;;;15.28;67.91;102032.75;5071165;28;20086;-84
2022/05/09 02:29:22;;;;;;;;;;;;;;;15.40;67.87;102056.22;5070818;28;20035;-83
2022/05/09 02:31:48;;;;;;;4.35;3.03;;;;;;;15.37;67.91;102051.72;5069522;28;19916;-83
2022/05/09 02:34:14;;;;;;;4.05;3.17;;;;;;;15.34;67.72;102048.88;5071232;28;20505;-83
2022/05/09 02:36:40;;;;;;;5.57;3.35;;;;;;;15.35;67.80;102053.34;5070453;28;20066;-83
2022/05/09 02:39:06;;;;;;;4.40;3.33;;;;;;;15.35;68.10;102060.34;5070689;28;20048;-83
2022/05/09 02:41:32;;;;;;;5.10;3.30;;;;;;;15.20;67.82;102027.09;5070603;28;20033;-85
2022/05/09 02:43:59;;;;;;;6.07;3.45;;;;;;;15.25;67.87;102041.41;5070885;28;20484;-85
2022/05/09 02:46:25;;;;;;;4.55;3.13;;;;;;;15.15;67.92;102025.00;5069471;28;20037;-85
2022/05/09 02:48:50;;;;;;;;;;;;;;;15.34;67.93;102066.41;5070253;28;20032;-85
2022/05/09 02:51:17;;;;;;;4.82;3.28;;;;;;;15.17;67.80;102034.78;5069573;28;19951;-85
2022/05/09 02:53:42;;;;;;;;;;;;;;;15.36;67.93;102062.13;5069652;28;20029;-85
2022/05/09 02:56:10;;;;;;;5.10;3.13;;;;;;;14.98;67.89;102008.28;5069452;28;19916;-86
2022/05/09 02:58:37;;;;;;;5.05;3.35;;;;;;;15.25;68.03;102066.81;5069700;28;20043;-86
2022/05/09 03:01:04;;;;;;;3.88;3.03;;;;;;;14.89;67.83;101994.63;5070402;28;20096;-86
2022/05/09 03:06:14;;;;;;;4.85;3.28;;;;;;;15.24;67.76;102060.66;5084020;28;20108;-86
2022/05/09 03:08:40;;;;;;;5.38;3.00;;;;;;;15.19;67.89;102051.56;5069971;28;20127;-85
2022/05/09 03:11:05;;;;;;;5.70;3.40;;;;;;;15.21;67.91;102060.47;5085225;28;20044;-85
2022/05/09 03:13:31;;;;;;;3.67;2.92;;;;;;;15.10;67.98;102045.81;5069629;28;20025;-85
2022/05/09 03:15:58;;;;;;;4.40;3.20;;;;;;;15.14;67.93;102063.59;5069289;28;20036;-85
2022/05/09 03:18:25;;;;;;;5.88;2.97;;;;;;;14.94;67.80;102030.88;5070419;28;20024;-85
2022/05/09 03:20:51;;;;;;;6.32;3.47;;;;;;;15.04;67.83;102045.47;5068930;28;20029;-85
2022/05/09 03:23:17;;;;;;;5.38;3.20;;;;;;;15.16;67.82;102063.69;5069318;28;20109;-85
2022/05/09 03:25:43;;;;;;;4.82;3.13;;;;;;;15.16;67.85;102076.84;5070646;28;20085;-85
2022/05/09 03:28:12;;;;;;;5.93;3.20;;;;;;;15.09;68.09;102072.03;5070340;28;20033;-85
2022/05/09 03:30:38;;;;;;;6.05;3.05;;;;;;;15.02;67.88;102055.00;5069601;28;20033;-85
2022/05/09 03:33:04;;;;;;;;;;;;;;;15.15;67.75;102089.06;5051157;28;20395;-85
2022/05/09 03:35:30;;;;;;;4.75;2.90;;;;;;;15.14;68.22;102089.91;5068987;28;20483;-85
2022/05/09 03:37:56;;;;;;;5.03;3.35;;;;;;;15.06;67.81;102078.03;5069205;28;20035;-85
2022/05/09 03:40:22;;;;;;;5.47;3.28;;;;;;;15.17;68.11;102091.78;5068963;28;20119;-85
2022/05/09 03:42:48;;;;;;;4.88;3.25;;;;;;;15.01;67.71;102071.63;5068958;28;20402;-86
2022/05/09 03:45:14;;;;;;;3.78;3.10;;;;;;;14.86;67.90;102053.22;5069088;28;20039;-86
2022/05/09 03:47:39;;;;;;;5.10;3.20;;;;;;;14.86;67.76;102058.50;5071234;28;20040;-86
2022/05/09 03:50:06;;;;;;;3.72;3.10;;;;;;;15.12;67.89;102103.78;5073943;28;20493;-85
2022/05/09 03:52:32;;;;;;;3.42;3.13;;;;;;;14.92;68.01;102071.06;5089317;28;20416;-86
2022/05/09 03:54:58;;;;;;;4.25;3.17;;;;;;;14.87;67.91;102070.81;5074146;28;20028;-85
2022/05/09 03:57:24;;;;;;;4.13;3.40;;;;;;;14.89;67.75;102071.81;5072592;28;20410;-86
2022/05/09 03:59:49;;;;;;;;;;;;;;;15.07;68.00;102104.44;5056711;28;20036;-86
2022/05/09 04:02:15;;;;;;;4.43;3.00;;;;;;;15.03;68.07;102097.19;5057329;28;19924;-85
2022/05/09 04:04:41;;;;;;;4.93;2.95;;;;;;;15.04;68.07;102096.34;5074442;28;20029;-86
2022/05/09 04:07:07;;;;;;;5.43;3.20;;;;;;;15.07;68.05;102104.44;5072017;28;20413;-86
2022/05/09 04:09:32;;;;;;;6.03;3.45;;;;;;;15.12;67.88;102107.31;5073758;28;20401;-85
2022/05/09 04:11:58;;;;;;;4.13;3.13;;;;;;;15.02;68.34;102104.97;5073023;28;20406;-86
2022/05/09 04:17:09;;;;;;;3.97;3.20;;;;;;;15.04;68.22;102103.34;5069682;28;20035;-85
2022/05/09 04:19:35;;;;;;;6.40;3.60;;;;;;;15.04;67.99;102100.72;5066334;28;20523;-85
2022/05/09 04:22:02;;;;;;;5.53;3.40;;;;;;;15.05;68.06;102097.28;5055442;28;20489;-85
2022/05/09 04:24:31;;;;;;;5.63;3.42;;;;;;;15.03;68.19;102099.81;5056321;28;20027;-86
2022/05/09 04:26:58;;;;;;;6.57;2.92;;;;;;;14.99;68.16;102099.56;5070807;28;20581;-86
2022/05/09 04:29:24;;;;;;;;;;;;;;;15.11;68.19;102118.66;5072489;28;20410;-86
2022/05/09 04:31:49;;;;;;;4.95;3.38;;;;;;;14.82;68.22;102075.81;5065170;28;20421;-86
2022/05/09 04:34:15;;;;;;;3.75;3.28;;;;;;;14.89;68.07;102084.06;5077815;28;20035;-86
2022/05/09 04:36:41;;;;;;;5.03;3.60;;;;;;;14.72;68.42;102068.22;5055108;28;20037;-87
2022/05/09 04:39:06;;;;;;;6.05;3.78;;;;;;;14.98;68.26;102106.50;5054761;28;20036;-86
2022/05/09 04:41:32;;;;;;;4.90;3.60;;;;;;;15.00;68.46;102114.50;5065851;28;20116;-86
2022/05/09 04:43:59;;;;;;;5.82;3.80;;;;;;;14.83;68.32;102084.59;5072778;28;20040;-89
2022/05/09 04:46:26;;;;;;;6.22;3.72;;;;;;;15.01;68.48;102119.88;5071035;28;20176;-85
2022/05/09 04:48:51;;;;;;;;;;;;;;;15.04;68.33;102120.03;5072797;28;20099;-86
2022/05/09 04:51:17;;;;;;;5.22;3.50;;;;;;;14.99;68.65;102121.50;5072764;28;20472;-85
2022/05/09 04:53:43;;;;;;;4.47;3.03;;;;;;;14.96;68.71;102115.16;5072785;28;20032;-86
2022/05/09 04:56:09;;;;;;;;;;;;;;;14.97;68.57;102117.88;5072194;28;20031;-86
2022/05/09 04:58:35;;;;;;;4.72;3.65;;;;;;;14.82;68.63;102094.22;5086397;28;19912;-85
2022/05/09 05:01:00;;;;;;;6.15;3.70;;;;;;;14.95;68.85;102115.97;5070160;28;20036;-86
2022/05/09 05:03:26;;;;;;;5.95;3.90;;;;;;;14.81;68.92;102096.75;5071762;28;20047;-86
2022/05/09 05:05:52;;;;;;;5.07;3.63;;;;;;;14.95;69.06;102126.50;5072907;28;20432;-85
2022/05/09 05:08:18;;;;;;;6.47;3.60;;;;;;;14.96;68.96;102121.31;5072822;28;20033;-85
2022/05/09 05:10:43;;;;;;;8.40;3.90;;;;;;;15.00;68.76;102120.66;5071039;28;20029;-85
2022/05/09 05:13:12;;;;;;;5.60;3.47;;;;;;;14.98;68.76;102118.78;5072643;28;20123;-85
2022/05/09 05:15:38;;;;;;;5.32;3.42;;;;;;;15.00;68.73;102120.66;5075112;28;20037;-86
2022/05/09 05:18:04;;;;;;;5.20;3.97;;;;;;;14.72;69.04;102085.72;5050444;28;20075;-84
2022/05/09 05:20:30;;;;;;;5.65;3.97;;;;;;;14.95;69.00;102123.88;5051872;28;20036;-83
2022/05/09 05:22:57;;;;;;;5.07;3.92;;;;;;;14.92;69.24;102121.03;5060081;28;20045;-84
2022/05/09 05:25:26;;;;;;;6.28;3.65;;;;;;;14.92;69.15;102121.03;5074638;28;20040;-85
2022/05/09 05:27:52;;;;;;;6.72;3.83;;;;;;;14.85;69.06;102110.16;5062869;28;20028;-84
2022/05/09 05:30:18;;;;;;;6.18;3.95;;;;;;;14.95;69.12;102130.03;5085609;28;20035;-85
2022/05/09 05:32:44;;;;;;;5.00;3.53;;;;;;;14.95;69.24;102132.66;5085563;28;20059;-84
2022/05/09 05:35:12;;;;;;;;;;;;;;;14.98;69.08;102140.72;5099141;28;20032;-84
2022/05/09 05:37:37;;;;;;;;;;;;;;;14.97;69.19;102138.03;5087606;28;20377;-84
2022/05/09 05:40:04;;;;;;;6.75;4.35;;;;;;;14.88;69.17;102127.88;5071184;28;19917;-84
2022/05/09 05:42:30;;;;;;;5.95;3.95;;;;;;;14.84;69.24;102128.50;5069992;28;20044;-84
2022/05/09 05:44:55;;;;;;;5.07;3.75;;;;;;;14.94;69.35;102148.34;5069080;28;20035;-84
2022/05/09 05:47:22;;;;;;;5.82;3.75;;;;;;;14.81;69.37;102128.31;5070054;28;20032;-83
2022/05/09 05:49:48;;;;;;;6.45;3.53;;;;;;;14.84;69.49;102132.03;5051867;28;20064;-84
2022/05/09 05:52:14;;;;;;;4.55;3.58;;;;;;;14.95;69.46;102152.81;5050174;28;20064;-84
2022/05/09 05:54:42;;;;;;;4.75;3.70;;;;;;;14.88;69.49;102135.75;5050483;28;20029;-84
2022/05/09 05:57:26;;;;;;;5.15;3.60;;;;;;;14.95;69.40;102155.44;5065763;28;20025;-84
2022/05/09 06:00:01;;;;;;;6.75;3.63;;;;;;;14.84;69.60;102142.56;5065831;28;20021;-84
2022/05/09 06:02:27;;;;;;;8.20;3.97;;;;;;;14.95;69.52;102153.72;5052458;28;20086;-84
2022/05/09 06:04:53;;;;;;;5.50;4.00;;;;;;;14.93;69.69;102160.59;5069478;28;20032;-86
2022/05/09 06:07:19;;;;;;;5.07;3.80;;;;;;;14.95;69.49;102163.31;5070275;28;20048;-84
2022/05/09 06:09:47;;;;;;;6.03;3.75;;;;;;;14.98;69.59;102153.88;5070137;28;20029;-89
2022/05/09 06:12:17;;;;;;;6.70;4.28;;;;;;;14.83;69.02;102124.03;5053721;28;20048;-90
2022/05/09 06:14:43;;;;;;;5.22;3.60;;;;;;;14.95;69.48;102151.06;5050961;28;20037;-89
2022/05/09 06:17:10;;;;;;;8.25;3.88;;;;;;;14.99;69.26;102165.31;5071019;28;20378;-89
2022/05/09 06:19:37;;;;;;;8.00;4.03;;;;;;;15.00;69.32;102170.66;5071720;28;20024;-88
2022/05/09 06:22:03;;;;;;;12.15;4.32;;;;;;;15.12;68.36;102169.56;5070837;28;20020;-83
2022/05/09 06:24:29;;;;;;;;;;;;;;;14.94;69.21;102172.91;5071020;28;20027;-83
2022/05/09 06:26:55;;;;;;;11.30;3.95;;;;;;;14.94;69.26;102174.66;5088512;28;20313;-84
2022/05/09 06:29:21;;;;;;;8.30;3.83;;;;;;;14.88;69.28;102166.41;5091336;28;20560;-82
2022/05/09 06:31:46;;;;;;;8.40;3.92;;;;;;;14.92;69.43;102187.72;5077482;28;20032;-83
2022/05/09 06:34:13;;;;;;;9.50;3.65;;;;;;;14.99;69.17;102186.38;5072042;28;20471;-83
2022/05/09 06:36:44;;;;;;;6.25;3.67;;;;;;;15.01;69.12;102182.09;5058712;28;20024;-83
2022/05/09 06:39:10;;;;;;;6.10;3.55;;;;;;;14.98;69.16;102180.19;5071199;28;20098;-83
2022/05/09 06:41:36;;;;;;;6.13;3.80;;;;;;;15.03;69.08;102188.38;5071253;28;20017;-82
2022/05/09 06:44:02;;;;;;;9.15;3.78;;;;;;;14.90;69.51;102191.06;5072113;28;20053;-82
2022/05/09 06:46:28;;;;;;;6.70;3.50;;;;;;;14.94;69.79;102187.81;5082966;28;20516;-82
2022/05/09 06:48:53;;;;;;;12.45;3.90;;;;;;;14.95;69.56;102182.63;5082410;28;20028;-82
2022/05/09 06:51:19;;;;;;;10.27;3.90;;;;;;;14.95;69.39;102182.63;5083502;28;20029;-82
2022/05/09 06:53:45;;;;;;;9.63;3.80;;;;;;;15.01;69.35;102183.00;5069760;28;20486;-82
2022/05/09 06:56:11;;;;;;;8.32;3.60;;;;;;;15.09;69.19;102187.78;5070601;28;20032;-82
2022/05/09 06:58:37;;;;;;;6.53;3.80;;;;;;;15.00;69.35;102191.69;5051881;28;20048;-82
2022/05/09 07:01:14;;;;;;;8.25;3.40;;;;;;;15.00;69.58;102194.31;5068582;28;20036;-82
2022/05/09 07:03:40;;;;;;;5.88;3.42;;;;;;;15.02;69.57;102195.31;5075163;28;20028;-82
2022/05/09 07:06:05;;;;;;;4.20;3.13;;;;;;;14.97;69.71;102194.16;5070569;28;20443;-83
2022/05/09 07:08:32;;;;;;;4.90;3.25;;;;;;;14.95;69.46;102180.00;5059816;28;20025;-82
2022/05/09 07:10:58;;;;;;;6.60;3.92;;;;;;;15.00;69.42;102190.78;5060345;28;20078;-82
2022/05/09 07:13:24;;;;;;;5.43;3.50;;;;;;;15.05;69.21;102186.72;5070984;28;20047;-81
2022/05/09 07:15:50;;;;;;;5.10;3.70;;;;;;;15.02;69.43;102197.06;5070614;28;20515;-82
2022/05/09 07:18:16;;;;;;;5.65;3.30;;;;;;;15.12;69.08;102195.88;5071855;28;20397;-81
2022/05/09 07:20:41;;;;;;;5.70;3.28;;;;;;;14.73;69.19;102148.91;5073957;28;20082;-82
2022/05/09 07:23:11;;;;;;;6.68;3.65;;;;;;;14.91;69.77;102201.69;5073600;28;20027;-81
2022/05/09 07:25:38;;;;;;;6.75;3.70;;;;;;;14.98;69.68;102205.59;5089141;28;20501;-81
2022/05/09 07:28:04;;;;;;;;;;;;;;;15.04;69.44;102205.94;5089458;28;20056;-83
2022/05/09 07:30:29;;;;;;;6.07;3.40;;;;;;;14.83;69.82;102189.81;5084967;28;19916;-83
2022/05/09 07:32:55;;;;;;;5.53;3.40;;;;;;;14.90;69.97;102199.88;5088297;28;20024;-83
2022/05/09 07:35:21;;;;;;;7.03;3.45;;;;;;;14.68;70.08;102174.00;5074633;28;20537;-82
2022/05/09 07:37:47;;;;;;;;;;;;;;;14.92;70.21;102206.16;5082521;28;20032;-82
2022/05/09 07:40:15;;;;;;;7.70;3.35;;;;;;;14.91;70.03;102206.94;5075339;28;19920;-82
2022/05/09 07:42:42;;;;;;;7.10;3.47;;;;;;;14.82;70.09;102195.91;5074526;28;20036;-82
2022/05/09 07:45:10;;;;;;;5.10;3.53;;;;;;;14.81;70.18;102187.06;5074597;28;20040;-83
2022/05/09 07:47:36;;;;;;;5.43;3.20;;;;;;;14.94;70.17;102222.91;5073511;28;20024;-83
2022/05/09 07:50:03;;;;;;;5.95;3.20;;;;;;;14.78;70.24;102188.63;5073913;28;20044;-83
2022/05/09 07:52:28;;;;;;;;;;;;;;;14.92;70.18;102211.41;5073741;28;20044;-82
2022/05/09 07:54:53;;;;;;;4.50;3.30;;;;;;;14.86;70.39;102217.19;5076778;28;19916;-83
2022/05/09 07:57:19;;;;;;;3.80;3.20;;;;;;;14.82;70.32;102198.53;5074165;28;20052;-82
2022/05/09 07:59:45;;;;;;;6.40;3.00;;;;;;;14.88;70.31;102205.84;5073805;28;20032;-83
2022/05/09 08:02:13;;;;;;;6.30;3.03;;;;;;;14.79;70.52;102187.81;5074153;28;20546;-83
2022/05/09 08:04:39;;;;;;;4.80;3.55;;;;;;;14.95;70.47;102218.56;5072146;28;20024;-82
2022/05/09 08:07:05;;;;;;;3.63;3.15;;;;;;;14.79;70.18;102185.16;5073891;28;20081;-84
2022/05/09 08:09:30;;;;;;;3.88;3.30;;;;;;;14.98;70.40;102221.38;5074038;28;20090;-84
2022/05/09 08:11:58;;;;;;;3.85;2.88;;;;;;;14.86;70.40;102206.69;5074728;28;20494;-82
2022/05/09 08:14:24;;;;;;;4.55;3.10;;;;;;;14.94;70.25;102216.75;5077816;28;20041;-83
2022/05/09 08:16:49;;;;;;;;;;;;;;;14.98;70.31;102214.38;5072742;28;20028;-85
2022/05/09 08:19:15;;;;;;;6.82;3.28;;;;;;;15.24;68.98;102215.03;5073659;28;19966;-85
2022/05/09 08:21:42;;;;;;;5.45;3.20;;;;;;;15.14;69.17;102204.78;5072724;28;20028;-84
2022/05/09 08:24:10;;;;;;;5.30;3.20;;;;;;;15.06;69.76;102209.56;5071553;28;20036;-83
2022/05/09 08:26:36;;;;;;;4.68;3.08;;;;;;;14.99;70.31;102210.94;5072866;28;20489;-83
2022/05/09 08:29:02;;;;;;;5.40;3.20;;;;;;;15.03;70.40;102225.19;5076677;28;20012;-83
2022/05/09 08:31:28;;;;;;;5.40;3.17;;;;;;;15.02;70.35;102213.75;5104150;28;20068;-83
2022/05/09 08:33:56;;;;;;;4.85;3.17;;;;;;;15.05;70.48;102219.19;5072854;28;20016;-83
2022/05/09 08:39:08;;;;;;;6.03;3.15;;;;;;;15.00;70.38;102201.31;5072826;28;20035;-82
2022/05/09 08:41:36;;;;;;;4.93;3.33;;;;;;;15.09;70.39;102216.75;5072290;28;20111;-83
2022/05/09 08:44:39;;;;;;;5.88;3.40;;;;;;;15.05;70.51;102220.94;5072126;28;20036;-83
2022/05/09 08:47:31;;;;;;;5.45;3.05;;;;;;;15.02;70.59;102216.38;5053309;28;20033;-83
2022/05/09 08:50:47;;;;;;;4.72;3.10;;;;;;;15.02;70.63;102216.38;5052261;28;20033;-83
2022/05/09 08:53:19;;;;;;;5.95;3.00;;;;;;;15.05;70.66;102216.56;5011169;28;20109;-83
2022/05/09 08:55:45;;;;;;;5.57;3.13;;;;;;;14.99;70.63;102213.56;5011427;28;20875;-83
2022/05/09 08:58:23;;;;;;;9.35;3.40;;;;;;;15.06;70.79;102222.72;5034998;28;20076;-83
2022/05/09 09:00:49;;;;;;;6.25;2.88;;;;;;;15.01;70.73;102211.94;5053022;28;20035;-83
2022/05/09 09:03:30;;;;;;;5.57;3.17;;;;;;;15.07;70.77;102229.81;5053114;28;20024;-84
2022/05/09 09:06:04;;;;;;;6.45;3.00;;;;;;;15.07;70.78;102216.66;5052759;28;20029;-83
2022/05/09 09:08:54;;;;;;;6.40;2.85;;;;;;;15.08;70.84;102218.47;5053040;28;20017;-83
2022/05/09 09:11:44;;;;;;;6.03;2.70;;;;;;;15.08;70.77;102221.09;5051747;28;20056;-83
2022/05/09 09:14:19;;;;;;;7.65;2.83;;;;;;;15.07;70.88;102219.31;5051481;28;20029;-83
2022/05/09 09:16:47;;;;;;;6.25;3.28;;;;;;;15.09;70.89;102222.94;5051438;28;20036;-82
2022/05/09 09:19:55;;;;;;;4.50;3.05;;;;;;;15.09;70.91;102217.66;5051606;28;20033;-83
2022/05/09 09:22:43;;;;;;;4.90;2.80;;;;;;;15.10;70.82;102214.22;5036429;28;20044;-84
2022/05/09 09:25:46;;;;;;;6.10;2.85;;;;;;;15.12;70.97;102216.94;5051519;28;20529;-84
2022/05/09 09:28:15;;;;;;;5.70;3.00;;;;;;;15.11;70.71;102231.78;5051522;28;20029;-84
2022/05/09 09:30:43;;;;;;;4.03;2.80;;;;;;;15.06;70.84;102215.75;5050427;28;20112;-84
2022/05/09 09:33:13;;;;;;;4.65;2.92;;;;;;;15.11;70.86;102221.25;5051861;28;20017;-84
2022/05/09 09:35:47;;;;;;;5.38;2.97;;;;;;;15.13;70.89;102221.38;5051903;28;20028;-82
2022/05/09 09:38:31;;;;;;;6.63;2.80;;;;;;;15.13;70.92;102219.63;5051899;28;20021;-84
2022/05/09 09:41:34;;;;;;;6.05;2.95;;;;;;;15.09;70.94;102208.84;5051685;28;20040;-82
2022/05/09 09:44:11;;;;;;;6.00;2.67;;;;;;;15.14;70.98;102218.84;5050958;28;20128;-84
2022/05/09 09:47:07;;;;;;;6.00;2.78;;;;;;;15.15;70.88;102218.00;5051943;28;20079;-84
2022/05/09 09:49:38;;;;;;;8.27;2.97;;;;;;;15.18;70.82;102217.28;5066870;28;20025;-84
2022/05/09 09:52:24;;;;;;;5.78;2.95;;;;;;;14.75;70.68;102141.09;5051650;28;20025;-84
2022/05/09 09:54:55;;;;;;;4.57;2.70;;;;;;;15.17;70.89;102221.63;5050585;28;20017;-84
2022/05/09 09:57:28;;;;;;;6.43;2.85;;;;;;;15.16;70.86;102213.66;5051662;28;20029;-84
2022/05/09 09:59:54;;;;;;;5.72;3.13;;;;;;;15.15;70.89;102212.72;5050187;28;20497;-84
2022/05/09 10:02:27;;;;;;;3.67;2.80;;;;;;;15.18;70.80;102210.31;5050705;28;20061;-83
2022/05/09 10:04:57;;;;;;;6.13;3.70;;;;;;;15.22;70.71;102221.94;5051371;28;20078;-83
2022/05/09 10:07:30;;;;;;;3.58;2.58;;;;;;;15.23;70.62;102214.09;5050041;28;20044;-84
2022/05/09 10:10:20;;;;;;;4.05;2.65;;;;;;;15.22;70.65;102217.56;5051399;28;20025;-84
2022/05/09 10:12:51;;;;;;;3.75;2.88;;;;;;;15.24;70.67;102221.19;5050267;28;20049;-84
2022/05/09 10:15:26;;;;;;;4.20;2.80;;;;;;;15.24;70.74;102210.66;5051597;28;20504;-83
2022/05/09 10:17:52;;;;;;;3.67;2.42;;;;;;;15.25;70.73;102216.81;5051339;28;20032;-83
2022/05/09 10:20:33;;;;;;;;;;;;;;;15.27;70.75;102215.19;5050836;28;20032;-83
2022/05/09 10:26:03;;;;;;;5.22;2.80;;;;;;;15.30;70.72;102222.34;5050801;28;20516;-83
2022/05/09 10:28:32;;;;;;;5.13;2.53;;;;;;;15.31;70.84;102221.53;5050279;28;20098;-84
2022/05/09 10:31:05;;;;;;;4.97;2.95;;;;;;;15.17;70.75;102190.06;5051400;28;20021;-84
2022/05/09 10:33:45;;;;;;;4.63;2.90;;;;;;;15.32;70.73;102223.34;5050214;28;20039;-83
2022/05/09 10:36:18;;;;;;;3.88;2.55;;;;;;;15.34;70.70;102227.88;5051390;28;20107;-84
2022/05/09 10:38:52;;;;;;;3.40;2.88;;;;;;;15.32;70.76;102224.25;5050335;28;20449;-83
2022/05/09 10:41:32;;;;;;;4.28;2.88;;;;;;;15.34;70.61;102213.81;5050105;28;20067;-83
2022/05/09 10:44:19;;;;;;;3.65;2.70;;;;;;;15.35;70.55;102219.19;5066706;28;20486;-83
2022/05/09 10:46:55;;;;;;;;;;;;;;;15.43;70.41;102227.50;5067247;28;20017;-84
2022/05/09 10:49:59;;;;;;;3.33;2.67;;;;;;;15.43;70.47;102216.97;5051301;28;19962;-83
2022/05/09 10:52:55;;;;;;;3.80;2.53;;;;;;;15.35;70.46;102213.91;5009372;28;20084;-84
2022/05/09 10:55:23;;;;;;;4.80;2.78;;;;;;;15.48;70.16;102223.41;5009067;28;20068;-83
2022/05/09 10:58:06;;;;;;;4.13;2.90;;;;;;;15.50;70.37;102223.53;5037149;28;20460;-83
2022/05/09 11:00:35;;;;;;;3.80;2.78;;;;;;;15.41;70.21;102211.63;5050860;28;20028;-83
2022/05/09 11:03:34;;;;;;;3.63;2.50;;;;;;;15.41;70.29;102210.75;5066655;28;20038;-84
2022/05/09 11:06:21;;;;;;;3.78;2.40;;;;;;;15.56;69.87;102219.50;5049987;28;20055;-83
2022/05/09 11:09:28;;;;;;;4.30;2.88;;;;;;;15.58;70.02;102222.22;5050938;28;20433;-83
2022/05/09 11:12:45;;;;;;;5.53;2.78;;;;;;;15.62;69.99;102226.81;5050705;28;20056;-84
2022/05/09 11:15:36;;;;;;;3.97;2.40;;;;;;;15.65;69.68;102229.66;5032992;28;20052;-83
2022/05/09 11:18:20;;;;;;;3.55;3.00;;;;;;;15.68;69.65;102228.09;5051044;28;20040;-84
2022/05/09 11:21:10;;;;;;;6.40;2.65;;;;;;;15.70;69.55;102224.63;5050918;28;20128;-83
2022/05/09 11:23:43;;;;;;;2.92;2.40;;;;;;;15.70;69.50;102225.53;5049424;28;20033;-83
2022/05/09 11:26:17;;;;;;;4.20;2.80;;;;;;;15.67;69.59;102213.09;5049834;28;20021;-83
2022/05/09 11:29:05;;;;;;;3.15;2.33;;;;;;;15.70;69.66;102216.72;5049789;28;20087;-83
2022/05/09 11:32:00;;;;;;;3.30;2.60;;;;;;;15.73;69.52;102219.59;5050861;28;20102;-83
2022/05/09 11:34:44;;;;;;;2.80;2.50;;;;;;;15.75;69.44;102210.94;5049842;28;20033;-84
2022/05/09 11:37:52;;;;;;;3.83;2.63;;;;;;;15.77;69.36;102209.31;5050858;28;20029;-84
2022/05/09 11:40:27;;;;;;;4.47;2.40;;;;;;;15.77;69.46;102208.38;5050516;28;20029;-84
2022/05/09 11:43:28;;;;;;;5.65;2.65;;;;;;;15.76;69.51;102204.84;5050698;28;20033;-84
2022/05/09 11:46:06;;;;;;;3.95;2.38;;;;;;;15.75;69.44;102197.78;5049704;28;20025;-84
2022/05/09 11:48:50;;;;;;;4.60;2.35;;;;;;;15.74;69.13;102205.59;5049358;28;20402;-84
2022/05/09 11:51:31;;;;;;;2.90;2.60;;;;;;;15.74;69.68;102200.31;5049489;28;20072;-83
2022/05/09 11:54:00;;;;;;;3.80;2.55;;;;;;;15.76;69.38;102199.56;5050718;28;20108;-84
2022/05/09 11:56:27;;;;;;;3.60;2.50;;;;;;;15.80;69.21;102192.75;5050651;28;20036;-83
2022/05/09 11:58:53;;;;;;;3.58;2.83;;;;;;;15.80;69.20;102196.28;5049418;28;20692;-84